• Join FlightAware (Why Join?)
  • Login
  • US Flag 
01:12PM EDT


 

Airport Tracker/Info


-or-


 

Live Flight TrackerFlight Track Log ✈ N442GJ ✈ 12-Jun-2013 ✈ KSRQ - 3A1

Flight Track Log - Related Links

Times and Time Zones

All times are in EDT time to prevent confusion due to time zone crossing. See the N442GJ flight status page for this flight to view local times or setup timezone preferences in your user account.

Time Position Orientation Groundspeed Altitude Reporting Facility
EDT Latitude Longitude Course Direction KTS MPH feet Rate Location/Type
01:59PM 27.4000 -82.5667 270° West 130 150 600  Level Tampa TRACON
01:59PM 27.4000 -82.5833 270° West 169 194 2,000 1,980 Climbing Tampa TRACON
02:00PM 27.4000 -82.6500 270° West 240 276 3,600 2,160 Climbing Tampa TRACON
02:02PM 27.4492 -82.7650 296° West 213 245 7,800 2,580 Climbing Miami Center
02:03PM 27.5167 -82.7967 337° Northwest 231 266 10,500 2,400 Climbing Miami Center
02:04PM 27.5894 -82.8003 357° North 236 272 12,600 2,100 Climbing Miami Center
02:05PM 27.6664 -82.8067 356° North 251 289 14,700 1,920 Climbing Miami Center
02:07PM 27.8203 -82.8292 353° North 276 318 18,400 1,800 Climbing Jacksonville Center
02:08PM 27.8953 -82.8456 349° North 276 318 20,200 1,800 Climbing Jacksonville Center
02:09PM 27.9747 -82.8572 353° North 276 318 22,000 1,680 Climbing Jacksonville Center
02:10PM 28.0539 -82.8433 North 276 318 23,600 1,440 Climbing Jacksonville Center
02:11PM 28.1375 -82.8314 North 281 323 24,900 1,200 Climbing Jacksonville Center
02:12PM 28.2314 -82.8147 North 304 350 26,000 1,140 Climbing Jacksonville Center
02:13PM 28.3253 -82.8078 North 329 379 27,200 1,200 Climbing Jacksonville Center
02:14PM 28.4169 -82.8500 338° Northwest 335 386 28,400 1,140 Climbing Jacksonville Center
02:15PM 28.5108 -82.9019 334° Northwest 347 399 29,500 960 Climbing Jacksonville Center
02:16PM 28.5861 -82.9444 334° Northwest 358 412 30,400 960 Climbing Jacksonville Center
02:17PM 28.6883 -83.0039 333° Northwest 369 425 31,500 1,020 Climbing Jacksonville Center
02:18PM 28.7822 -83.0561 334° Northwest 369 425 32,500 1,020 Climbing Jacksonville Center
02:19PM 28.8781 -83.1108 333° Northwest 374 430 33,600 720 Climbing Jacksonville Center
02:20PM 28.9761 -83.1583 337° Northwest 374 430 34,000 180 Climbing Jacksonville Center
02:21PM 29.0783 -83.2206 332° Northwest 386 444 34,000  Level Jacksonville Center
02:22PM 29.1761 -83.2944 327° Northwest 409 471 34,000  Level Jacksonville Center
02:23PM 29.2781 -83.3711 327° Northwest 422 486 34,000  Level Jacksonville Center
02:24PM 29.3800 -83.4503 326° Northwest 434 499 34,000  Level Jacksonville Center
02:25PM 29.4819 -83.5272 327° Northwest 444 511 34,000  Level Jacksonville Center
02:26PM 29.5861 -83.6067 326° Northwest 444 511 34,000  Level Jacksonville Center
02:27PM 29.6858 -83.6864 325° Northwest 444 511 34,000  Level Jacksonville Center
02:28PM 29.7981 -83.7686 328° Northwest 444 511 34,000  Level Jacksonville Center
02:29PM 29.8975 -83.8461 326° Northwest 444 511 34,000  Level Jacksonville Center
02:30PM 29.9972 -83.9214 327° Northwest 444 511 34,000  Level Jacksonville Center
02:31PM 30.0967 -83.9994 326° Northwest 439 505 34,000  Level Jacksonville Center
02:32PM 30.1964 -84.0775 326° Northwest 439 505 34,000  Level Jacksonville Center
02:33PM 30.2978 -84.1556 326° Northwest 439 505 34,000  Level Jacksonville Center
02:34PM 30.3972 -84.2317 327° Northwest 439 505 34,000  Level Jacksonville Center
02:35PM 30.4967 -84.3078 327° Northwest 439 505 34,000  Level Jacksonville Center
02:36PM 30.5878 -84.3839 324° Northwest 433 498 34,000  Level Jacksonville Center
02:37PM 30.6892 -84.4628 326° Northwest 438 504 34,000  Level Jacksonville Center
02:38PM 30.8008 -84.5469 327° Northwest 438 504 34,000  Level Jacksonville Center
02:39PM 30.8894 -84.6211 324° Northwest 438 504 34,000  Level Jacksonville Center
02:40PM 30.9886 -84.7003 326° Northwest 433 498 34,000  Level Jacksonville Center
02:41PM 31.0897 -84.7800 326° Northwest 438 504 34,000  Level Jacksonville Center
02:42PM 31.1908 -84.8572 327° Northwest 438 504 34,000  Level Jacksonville Center
02:44PM 31.4150 -85.0389 325° Northwest 446 513 34,000  Level Atlanta Center
02:45PM 31.5144 -85.1203 325° Northwest 441 507 34,000  Level Atlanta Center
02:46PM 31.6139 -85.1997 326° Northwest 441 507 34,000  Level Atlanta Center
02:47PM 31.7050 -85.2667 328° Northwest 441 507 34,000  Level Atlanta Center
02:48PM 31.8044 -85.3464 326° Northwest 441 507 34,000  Level Atlanta Center
02:49PM 31.9017 -85.4258 325° Northwest 436 502 34,000 -600 Level Atlanta Center
02:50PM 31.9989 -85.5058 325° Northwest 436 502 32,900 -1,260 Descending Atlanta Center
02:51PM 32.0958 -85.5833 326° Northwest 431 496 31,500 -1,380 Descending Atlanta Center
02:52PM 32.1931 -85.6611 326° Northwest 426 490 30,200 -780 Descending Atlanta Center
02:53PM 32.2900 -85.7417 325° Northwest 426 490 30,000 -120 Descending Atlanta Center
02:54PM 32.4014 -85.8347 325° Northwest 431 496 30,000 -720 Level Atlanta Center
02:55PM 32.4961 -85.9178 324° Northwest 431 496 28,600 -1,200 Descending Atlanta Center
02:56PM 32.6036 -85.9992 327° Northwest 443 510 27,600 -1,020 Descending Atlanta Center
02:57PM 32.7003 -86.0803 325° Northwest 443 510 26,600 -1,080 Descending Atlanta Center
02:58PM 32.8011 -86.1667 324° Northwest 443 510 25,500 -1,080 Descending Atlanta Center
02:59PM 32.8978 -86.2456 326° Northwest 443 510 24,500 -900 Descending Atlanta Center
03:00PM 32.9986 -86.3300 325° Northwest 443 510 23,700 -780 Descending Atlanta Center
03:01PM 33.0972 -86.4117 325° Northwest 443 510 23,000 -1,080 Descending Atlanta Center
03:02PM 33.1958 -86.4964 324° Northwest 443 510 21,600 -1,740 Descending Atlanta Center
03:03PM 33.2881 -86.5786 323° Northwest 437 503 19,600 -1,800 Descending Atlanta Center
03:04PM 33.3722 -86.6456 326° Northwest 421 484 18,100 -840 Descending Atlanta Center
03:05PM 33.4644 -86.7231 325° Northwest 410 472 18,000 -120 Descending Atlanta Center
03:06PM 33.5544 -86.8008 324° Northwest 405 466 17,900 -1,140 Descending Atlanta Center
03:07PM 33.6467 -86.8786 325° Northwest 405 466 15,800 -2,400 Descending Atlanta Center
03:07PM 33.6858 -86.8972 338° Northwest 399 459 14,900 -2,880 Descending Atlanta Center
03:08PM 33.7528 -86.8969 360° North 389 448 13,400 -2,460 Descending Atlanta Center
03:09PM 33.8594 -86.8906 North 380 437 11,000 -1,800 Descending Atlanta Center
03:10PM 33.9492 -86.8861 North 291 335 9,800 -1,680 Descending Atlanta Center
03:11PM 34.0289 -86.8736 North 311 358 7,500 -1,860 Descending Atlanta Center
03:12PM 34.1000 -86.8686 North 275 316 5,900 -1,560 Descending Atlanta Center
03:13PM 34.1667 -86.8633 North 250 288 4,400 -1,500 Descending Atlanta Center